KOLS/OLS METAR and TAF weather

Enter ICAO airport designator
Station Type Date Time Source
KOLS METAR 2022/12/04 04:54 UTC NOAA

KOLS 040454Z AUTO 00000KT 1/4SM FG VV001 13/13 A3023 RMK AO2 SLP200 T01330133


Station Type Date Time Source
KOLS Decoded METAR 2022/12/04 04:54 UTC NOAA

NOGALES INTERNATIONAL AIRPORT , AZ, United States (KOLS) 31-25N 110-51W 1184M
Dec 03, 2022 - 11:54 PM EST / 2022.12.04 0454 UTC
Wind: Calm:0
Visibility: 1/4 mile(s):0
Sky conditions: obscured
Weather: fog
Temperature: 55.9 F (13.3 C)
Dew Point: 55.9 F (13.3 C)
Relative Humidity: 100%
Pressure (altimeter): 30.23 in. Hg (1023 hPa)
ob: KOLS 040454Z AUTO 00000KT 1/4SM FG VV001 13/13 A3023 RMK AO2 SLP200 T01330133
cycle: 5

Station Type Date Time Source
KOLS TAF 2022/12/04 06:22 UTC NOAA

TAF KOLS 040520Z 0406/0506 26004KT 1/4SM FG VCSH OVC001
TEMPO 0406/0410 BKN003 OVC008
FM041000 VRB04KT P6SM VCSH BKN015 OVC030
FM041800 17005KT 4SM -SHRA BR BKN025 OVC040
FM050300 14005KT P6SM VCSH BKN035 OVC060

Example: see airport list